createdAt,value
2019-05-07T00:00:35.193Z,5.47
2019-05-07T00:01:35.179Z,5.47
2019-05-07T00:02:35.170Z,5.56
2019-05-07T00:03:35.157Z,5.56
2019-05-07T00:04:35.141Z,5.56
2019-05-07T00:05:35.151Z,5.54
2019-05-07T00:06:35.154Z,5.57
2019-05-07T00:07:35.115Z,5.51
2019-05-07T00:08:35.101Z,5.50
2019-05-07T00:09:35.093Z,5.50
2019-05-07T00:10:35.077Z,5.53
2019-05-07T00:11:35.078Z,5.48
2019-05-07T00:12:35.068Z,5.48
2019-05-07T00:13:35.049Z,5.56
2019-05-07T00:14:35.028Z,5.53
2019-05-07T00:15:35.026Z,5.54
2019-05-07T00:16:35.007Z,5.53
2019-05-07T00:17:35.021Z,5.53
2019-05-07T00:18:34.989Z,5.54
2019-05-07T00:19:35.915Z,5.48
2019-05-07T00:20:34.966Z,5.57
2019-05-07T00:21:34.952Z,5.54
2019-05-07T00:22:34.943Z,5.50
2019-05-07T00:23:34.954Z,5.54
2019-05-07T00:24:34.923Z,5.57
2019-05-07T00:25:34.912Z,5.54
2019-05-07T00:26:34.895Z,5.51
2019-05-07T00:27:34.885Z,5.51
2019-05-07T00:28:34.878Z,5.50
2019-05-07T00:29:34.895Z,5.48
2019-05-07T00:30:34.854Z,5.44
2019-05-07T00:31:34.845Z,5.43
2019-05-07T00:32:34.835Z,5.47
2019-05-07T00:33:34.819Z,5.43
2019-05-07T00:34:34.812Z,5.41
2019-05-07T00:35:34.816Z,5.44
2019-05-07T00:36:34.796Z,5.36
2019-05-07T00:37:34.777Z,5.44
2019-05-07T00:38:34.772Z,5.38
2019-05-07T00:39:34.756Z,5.39
2019-05-07T00:40:34.741Z,5.44
2019-05-07T00:41:34.748Z,5.50
2019-05-07T00:42:34.724Z,5.44
2019-05-07T00:43:34.710Z,5.33
2019-05-07T00:44:34.698Z,5.33
2019-05-07T00:45:34.685Z,5.35
2019-05-07T00:46:34.681Z,5.36
2019-05-07T00:47:34.714Z,5.28
2019-05-07T00:48:34.655Z,5.32
2019-05-07T00:49:34.665Z,5.35
2019-05-07T00:50:34.633Z,5.36
2019-05-07T00:51:34.633Z,5.29
2019-05-07T00:52:34.615Z,5.28
2019-05-07T00:53:34.611Z,5.30
2019-05-07T00:54:34.585Z,5.28
2019-05-07T00:55:34.577Z,5.29
2019-05-07T00:56:34.568Z,5.30
2019-05-07T00:57:34.556Z,5.30
2019-05-07T00:58:34.547Z,5.32
2019-05-07T00:59:34.549Z,5.29
2019-05-07T01:00:34.523Z,5.21
2019-05-07T01:01:34.511Z,5.25
2019-05-07T01:02:34.501Z,5.25
2019-05-07T01:03:34.483Z,5.25
2019-05-07T01:04:34.478Z,5.25
2019-05-07T01:05:34.486Z,5.23
2019-05-07T01:06:34.462Z,5.23
2019-05-07T01:07:34.443Z,5.28
2019-05-07T01:08:34.439Z,5.30
2019-05-07T01:09:34.422Z,5.33
2019-05-07T01:10:34.412Z,5.23
2019-05-07T01:11:34.413Z,5.25
2019-05-07T01:12:34.384Z,5.25
2019-05-07T01:13:34.373Z,5.32
2019-05-07T01:14:34.362Z,5.28
2019-05-07T01:15:34.878Z,5.38
2019-05-07T01:16:34.347Z,5.29
2019-05-07T01:17:34.346Z,5.26
2019-05-07T01:18:34.319Z,5.29
2019-05-07T01:19:34.305Z,5.25
2019-05-07T01:20:34.294Z,5.26
2019-05-07T01:21:34.282Z,5.25
2019-05-07T01:22:34.270Z,5.28
2019-05-07T01:23:34.279Z,5.30
2019-05-07T01:24:34.250Z,5.33
2019-05-07T01:25:34.237Z,5.29
2019-05-07T01:26:34.230Z,5.25
2019-05-07T01:27:34.220Z,5.29
2019-05-07T01:28:34.203Z,5.32
2019-05-07T01:29:34.208Z,5.29
2019-05-07T01:30:34.190Z,5.26
2019-05-07T01:31:34.179Z,5.26
2019-05-07T01:32:34.159Z,5.26
2019-05-07T01:33:34.153Z,5.20
2019-05-07T01:34:34.136Z,5.21
2019-05-07T01:35:34.143Z,5.28
2019-05-07T01:36:34.123Z,5.32
2019-05-07T01:37:34.113Z,5.29
2019-05-07T01:38:34.109Z,5.26
2019-05-07T01:39:34.096Z,5.18
2019-05-07T01:40:34.069Z,5.21
2019-05-07T01:41:34.083Z,5.21
2019-05-07T01:42:36.600Z,5.18
2019-05-07T01:43:34.047Z,5.00
2019-05-07T01:44:34.061Z,5.10
2019-05-07T01:45:45.509Z,5.00
2019-05-07T01:46:35.024Z,5.08
2019-05-07T01:47:33.997Z,5.12
2019-05-07T01:48:33.988Z,5.18
2019-05-07T01:49:33.984Z,5.12
2019-05-07T01:50:33.959Z,5.07
2019-05-07T01:51:33.949Z,5.14
2019-05-07T01:52:33.959Z,5.00
2019-05-07T01:53:33.930Z,5.14
2019-05-07T01:54:33.918Z,5.14
2019-05-07T01:55:33.910Z,5.05
2019-05-07T01:56:33.913Z,5.11
2019-05-07T01:57:33.893Z,5.07
2019-05-07T01:58:33.898Z,5.12
2019-05-07T01:59:33.862Z,5.07
2019-05-07T02:00:33.846Z,5.08
2019-05-07T02:01:35.878Z,4.97
2019-05-07T02:02:33.829Z,4.90
2019-05-07T02:03:33.822Z,5.00
2019-05-07T02:04:33.822Z,4.90
2019-05-07T02:05:33.797Z,4.89
2019-05-07T02:06:33.784Z,5.04
2019-05-07T02:07:33.769Z,4.89
2019-05-07T02:08:33.762Z,4.89
2019-05-07T02:09:34.123Z,4.86
2019-05-07T02:10:33.770Z,4.82
2019-05-07T02:11:33.727Z,4.90
2019-05-07T02:12:33.720Z,4.80
2019-05-07T02:13:33.935Z,4.80
2019-05-07T02:14:33.697Z,4.86
2019-05-07T02:15:33.687Z,4.82
2019-05-07T02:16:33.709Z,4.75
2019-05-07T02:17:33.686Z,4.80
2019-05-07T02:18:33.651Z,4.86
2019-05-07T02:19:33.655Z,4.75
2019-05-07T02:20:33.630Z,4.87
2019-05-07T02:21:33.623Z,4.78
2019-05-07T02:22:33.627Z,4.84
2019-05-07T02:23:33.594Z,4.78
2019-05-07T02:24:34.018Z,4.74
2019-05-07T02:25:33.569Z,4.66
2019-05-07T02:26:33.563Z,4.66
2019-05-07T02:27:33.554Z,4.78
2019-05-07T02:28:33.580Z,4.77
2019-05-07T02:29:33.538Z,4.73
2019-05-07T02:30:34.894Z,4.84
2019-05-07T02:31:33.999Z,4.80
2019-05-07T02:32:33.894Z,4.80
2019-05-07T02:33:35.144Z,4.92
2019-05-07T02:34:34.326Z,4.80
2019-05-07T02:35:33.758Z,4.82
2019-05-07T02:36:34.165Z,4.70
2019-05-07T02:37:46.423Z,4.77
2019-05-07T02:38:34.427Z,4.82
2019-05-07T02:39:33.506Z,4.82
2019-05-07T02:40:34.107Z,4.80
2019-05-07T02:41:33.411Z,4.86
2019-05-07T02:42:33.830Z,4.75
2019-05-07T02:43:33.918Z,4.80
2019-05-07T02:44:33.363Z,4.80
2019-05-07T02:45:33.524Z,4.84
2019-05-07T02:46:36.381Z,4.80
2019-05-07T02:47:33.549Z,4.82
2019-05-07T02:48:33.461Z,4.77
2019-05-07T02:49:33.307Z,4.82
2019-05-07T02:50:33.293Z,4.78
2019-05-07T02:51:33.796Z,4.74
2019-05-07T02:52:33.289Z,4.86
2019-05-07T02:53:33.924Z,4.87
2019-05-07T02:54:33.277Z,4.78
2019-05-07T02:55:33.806Z,4.82
2019-05-07T02:56:33.665Z,4.70
2019-05-07T02:57:34.283Z,4.82
2019-05-07T02:58:33.383Z,4.90
2019-05-07T02:59:33.722Z,4.78
2019-05-07T03:00:33.600Z,4.89
2019-05-07T03:01:33.791Z,4.80
2019-05-07T03:02:33.348Z,4.84
2019-05-07T03:03:33.644Z,4.78
2019-05-07T03:04:33.505Z,4.78
2019-05-07T03:05:35.007Z,4.84
2019-05-07T03:06:33.864Z,4.77
2019-05-07T03:07:33.713Z,4.78
2019-05-07T03:08:33.464Z,4.84
2019-05-07T03:09:33.087Z,4.80
2019-05-07T03:10:34.073Z,4.77
2019-05-07T03:11:33.934Z,4.84
2019-05-07T03:12:33.675Z,4.82
2019-05-07T03:13:33.748Z,4.86
2019-05-07T03:14:33.033Z,4.78
2019-05-07T03:15:33.610Z,4.87
2019-05-07T03:16:43.121Z,4.86
2019-05-07T03:17:33.997Z,4.84
2019-05-07T03:18:33.682Z,4.84
2019-05-07T03:19:33.264Z,4.84
2019-05-07T03:20:33.506Z,4.73
2019-05-07T03:21:32.988Z,4.78
2019-05-07T03:22:33.831Z,4.78
2019-05-07T03:23:34.081Z,4.77
2019-05-07T03:24:34.307Z,4.86
2019-05-07T03:25:33.853Z,4.80
2019-05-07T03:26:34.138Z,4.84
2019-05-07T03:27:34.106Z,4.82
2019-05-07T03:28:33.577Z,4.86
2019-05-07T03:29:33.531Z,4.75
2019-05-07T03:30:36.004Z,4.82
2019-05-07T03:31:36.150Z,4.68
2019-05-07T03:32:37.773Z,4.73
2019-05-07T03:33:36.663Z,4.66
2019-05-07T03:34:36.905Z,4.62
2019-05-07T03:35:37.126Z,4.70
2019-05-07T03:36:35.383Z,4.71
2019-05-07T03:37:36.119Z,4.71
2019-05-07T03:38:33.467Z,4.68
2019-05-07T03:39:33.862Z,4.67
2019-05-07T03:40:33.051Z,4.66
2019-05-07T03:41:33.332Z,4.62
2019-05-07T03:42:33.517Z,4.62
2019-05-07T03:43:32.760Z,4.68
2019-05-07T03:44:33.872Z,4.70
2019-05-07T03:45:33.472Z,4.66
2019-05-07T03:46:33.643Z,4.68
2019-05-07T03:47:33.298Z,4.68
2019-05-07T03:48:33.437Z,4.67
2019-05-07T03:49:34.195Z,4.66
2019-05-07T03:50:33.799Z,4.67
2019-05-07T03:51:33.027Z,4.66
2019-05-07T03:52:33.517Z,4.71
2019-05-07T03:53:33.964Z,4.67
2019-05-07T03:54:34.073Z,4.60
2019-05-07T03:55:33.231Z,4.62
2019-05-07T03:56:33.001Z,4.60
2019-05-07T03:57:33.402Z,4.60
2019-05-07T03:58:33.934Z,4.62
2019-05-07T03:59:34.292Z,4.53
2019-05-07T04:00:33.194Z,4.53
2019-05-07T04:01:33.467Z,4.60
2019-05-07T04:02:33.312Z,4.62
2019-05-07T04:03:34.108Z,4.55
2019-05-07T04:04:33.278Z,4.49
2019-05-07T04:05:34.154Z,4.58
2019-05-07T04:06:33.226Z,4.55
2019-05-07T04:07:33.618Z,4.58
2019-05-07T04:08:33.496Z,4.62
2019-05-07T04:09:33.278Z,4.63
2019-05-07T04:10:33.839Z,4.62
2019-05-07T04:11:33.703Z,4.58
2019-05-07T04:12:34.285Z,4.67
2019-05-07T04:13:33.555Z,4.66
2019-05-07T04:14:34.388Z,4.66
2019-05-07T04:15:33.149Z,4.60
2019-05-07T04:16:33.282Z,4.71
2019-05-07T04:17:33.774Z,4.67
2019-05-07T04:18:33.172Z,4.70
2019-05-07T04:19:32.978Z,4.70
2019-05-07T04:20:33.347Z,4.66
2019-05-07T04:21:34.498Z,4.70
2019-05-07T04:22:34.623Z,4.73
2019-05-07T04:23:34.074Z,4.77
2019-05-07T04:24:33.344Z,4.78
2019-05-07T04:25:34.708Z,4.78
2019-05-07T04:26:33.852Z,4.78
2019-05-07T04:27:33.278Z,4.78
2019-05-07T04:28:33.428Z,4.82
2019-05-07T04:29:34.968Z,4.80
2019-05-07T04:30:33.059Z,4.75
2019-05-07T04:31:34.249Z,4.84
2019-05-07T04:32:33.465Z,4.84
2019-05-07T04:33:33.415Z,4.87
2019-05-07T04:34:33.707Z,4.92
2019-05-07T04:35:33.401Z,4.87
2019-05-07T04:36:34.159Z,4.94
2019-05-07T04:37:33.201Z,4.90
2019-05-07T04:38:33.484Z,4.93
2019-05-07T04:39:33.455Z,4.90
2019-05-07T04:40:33.867Z,5.04
2019-05-07T04:41:33.034Z,5.05
2019-05-07T04:42:33.348Z,5.05
2019-05-07T04:43:33.670Z,5.05
2019-05-07T04:44:33.188Z,5.10
2019-05-07T04:45:33.823Z,5.14
2019-05-07T04:46:33.386Z,5.17
2019-05-07T04:47:41.561Z,5.17
2019-05-07T04:48:34.003Z,5.18
2019-05-07T04:49:33.248Z,5.17
2019-05-07T04:50:42.012Z,5.18
2019-05-07T04:51:33.649Z,5.26
2019-05-07T04:52:33.643Z,5.26
2019-05-07T04:53:32.778Z,5.18
2019-05-07T04:54:32.943Z,5.28
2019-05-07T04:55:33.465Z,5.26
2019-05-07T04:56:33.709Z,5.28
2019-05-07T04:57:33.008Z,5.28
2019-05-07T04:58:33.826Z,5.29
2019-05-07T04:59:32.982Z,5.28
2019-05-07T05:00:33.615Z,5.23
2019-05-07T05:01:32.859Z,5.30
2019-05-07T05:02:32.526Z,5.30
2019-05-07T05:03:34.704Z,5.25
2019-05-07T05:04:34.808Z,5.38
2019-05-07T05:05:32.911Z,5.38
2019-05-07T05:06:32.957Z,5.41
2019-05-07T05:07:33.527Z,5.50
2019-05-07T05:08:32.602Z,5.47
2019-05-07T05:09:32.953Z,5.51
2019-05-07T05:10:33.626Z,5.59
2019-05-07T05:11:33.510Z,5.68
2019-05-07T05:12:32.602Z,5.68
2019-05-07T05:13:33.169Z,6.04
2019-05-07T05:14:33.857Z,6.51
2019-05-07T05:15:32.173Z,6.87
2019-05-07T05:16:32.758Z,7.17
2019-05-07T05:17:32.091Z,7.14
2019-05-07T05:18:32.959Z,6.93
2019-05-07T05:19:32.321Z,6.74
2019-05-07T05:20:33.601Z,6.59
2019-05-07T05:21:32.259Z,6.48
2019-05-07T05:22:31.840Z,6.46
2019-05-07T05:23:32.268Z,6.31
2019-05-07T05:24:32.986Z,6.22
2019-05-07T05:25:32.269Z,6.09
2019-05-07T05:26:32.520Z,6.09
2019-05-07T05:27:32.691Z,6.24
2019-05-07T05:28:32.387Z,6.20
2019-05-07T05:29:32.282Z,6.26
2019-05-07T05:30:32.697Z,6.24
2019-05-07T05:31:33.068Z,6.26
2019-05-07T05:32:32.491Z,6.20
2019-05-07T05:33:32.344Z,6.26
2019-05-07T05:34:32.947Z,6.35
2019-05-07T05:35:32.061Z,6.28
2019-05-07T05:36:32.970Z,6.28
2019-05-07T05:37:32.122Z,6.30
2019-05-07T05:38:32.956Z,6.26
2019-05-07T05:39:32.034Z,6.30
2019-05-07T05:40:32.020Z,6.33
2019-05-07T05:41:33.807Z,6.46
2019-05-07T05:42:33.047Z,6.54
2019-05-07T05:43:32.046Z,6.54
2019-05-07T05:44:32.039Z,6.74
2019-05-07T05:45:33.346Z,6.81
2019-05-07T05:46:31.945Z,6.77
2019-05-07T05:47:33.007Z,6.78
2019-05-07T05:48:33.351Z,6.78
2019-05-07T05:49:32.185Z,6.84
2019-05-07T05:50:33.156Z,6.78
2019-05-07T05:51:32.233Z,6.84
2019-05-07T05:52:32.888Z,6.92
2019-05-07T05:53:32.673Z,6.93
2019-05-07T05:54:31.837Z,6.92
2019-05-07T05:55:32.199Z,6.97
2019-05-07T05:56:32.411Z,6.95
2019-05-07T05:57:32.291Z,6.93
2019-05-07T05:58:32.548Z,6.88
2019-05-07T05:59:47.415Z,6.84
2019-05-07T06:00:32.848Z,6.96
2019-05-07T06:01:32.033Z,6.96
2019-05-07T06:02:32.407Z,7.14
2019-05-07T06:03:32.223Z,7.11
2019-05-07T06:04:32.875Z,7.23
2019-05-07T06:05:34.242Z,7.23
2019-05-07T06:06:32.708Z,7.25
2019-05-07T06:07:31.886Z,7.28
2019-05-07T06:08:32.482Z,7.23
2019-05-07T06:09:32.772Z,7.31
2019-05-07T06:10:33.017Z,7.39
2019-05-07T06:11:32.213Z,7.40
2019-05-07T06:12:32.829Z,7.38
2019-05-07T06:13:32.329Z,7.39
2019-05-07T06:14:33.068Z,7.45
2019-05-07T06:15:32.708Z,7.56
2019-05-07T06:16:32.855Z,7.48
2019-05-07T06:17:32.077Z,7.36
2019-05-07T06:18:32.709Z,7.28
2019-05-07T06:19:32.833Z,7.32
2019-05-07T06:20:32.058Z,7.33
2019-05-07T06:21:32.269Z,7.28
2019-05-07T06:22:33.076Z,7.25
2019-05-07T06:23:32.967Z,7.42
2019-05-07T06:24:31.783Z,7.57
2019-05-07T06:25:33.456Z,7.69
2019-05-07T06:26:31.895Z,7.72
2019-05-07T06:27:32.522Z,7.69
2019-05-07T06:28:32.948Z,7.69
2019-05-07T06:29:32.854Z,7.57
2019-05-07T06:30:30.874Z,7.61
2019-05-07T06:31:32.701Z,7.87
2019-05-07T06:32:32.016Z,8.09
2019-05-07T06:33:32.461Z,8.24
2019-05-07T06:34:30.830Z,8.30
2019-05-07T06:35:32.486Z,8.38
2019-05-07T06:36:32.851Z,8.45
2019-05-07T06:37:32.162Z,8.44
2019-05-07T06:38:31.969Z,8.41
2019-05-07T06:39:32.692Z,8.51
2019-05-07T06:40:32.110Z,8.51
2019-05-07T06:41:32.258Z,8.45
2019-05-07T06:42:30.733Z,8.58
2019-05-07T06:43:32.545Z,8.53
2019-05-07T06:44:32.038Z,8.58
2019-05-07T06:45:34.713Z,8.63
2019-05-07T06:46:32.278Z,8.66
2019-05-07T06:47:31.922Z,8.79
2019-05-07T06:48:38.921Z,9.03
2019-05-07T06:49:32.426Z,9.18
2019-05-07T06:50:32.676Z,9.06
2019-05-07T06:51:32.657Z,9.29
2019-05-07T06:52:31.976Z,8.99
2019-05-07T06:53:32.955Z,9.23
2019-05-07T06:54:32.117Z,9.31
2019-05-07T06:55:32.409Z,9.46
2019-05-07T06:56:32.561Z,9.29
2019-05-07T06:57:32.834Z,9.46
2019-05-07T06:58:32.572Z,9.59
2019-05-07T06:59:34.307Z,9.69
2019-05-07T07:00:31.937Z,9.64
2019-05-07T07:01:32.358Z,9.61
2019-05-07T07:02:32.747Z,9.61
2019-05-07T07:03:32.709Z,9.58
2019-05-07T07:04:30.487Z,9.54
2019-05-07T07:05:32.855Z,9.31
2019-05-07T07:06:32.184Z,9.06
2019-05-07T07:07:34.702Z,8.97
2019-05-07T07:08:32.518Z,8.99
2019-05-07T07:09:32.787Z,8.84
2019-05-07T07:10:32.252Z,8.74
2019-05-07T07:11:31.943Z,8.73
2019-05-07T07:12:32.478Z,8.81
2019-05-07T07:13:32.175Z,8.73
2019-05-07T07:14:30.383Z,8.67
2019-05-07T07:15:32.079Z,8.45
2019-05-07T07:16:32.505Z,8.36
2019-05-07T07:17:32.417Z,8.37
2019-05-07T07:18:32.307Z,8.46
2019-05-07T07:19:32.533Z,8.41
2019-05-07T07:20:32.455Z,8.41
2019-05-07T07:21:32.522Z,8.42
2019-05-07T07:22:31.929Z,8.48
2019-05-07T07:23:32.406Z,8.71
2019-05-07T07:24:30.259Z,8.74
2019-05-07T07:25:32.411Z,8.79
2019-05-07T07:26:32.652Z,8.85
2019-05-07T07:27:32.212Z,8.82
2019-05-07T07:28:32.420Z,8.78
2019-05-07T07:29:32.381Z,8.73
2019-05-07T07:30:32.458Z,8.71
2019-05-07T07:31:31.939Z,8.73
2019-05-07T07:32:31.771Z,8.67
2019-05-07T07:33:31.975Z,8.58
2019-05-07T07:34:30.140Z,8.69
2019-05-07T07:35:32.128Z,8.82
2019-05-07T07:36:32.030Z,9.10
2019-05-07T07:37:32.007Z,9.41
2019-05-07T07:38:30.117Z,9.56
2019-05-07T07:39:32.184Z,9.65
2019-05-07T07:40:30.078Z,9.73
2019-05-07T07:41:32.510Z,9.74
2019-05-07T07:42:31.958Z,9.74
2019-05-07T07:43:32.378Z,9.73
2019-05-07T07:44:30.044Z,9.73
2019-05-07T07:45:32.242Z,10.02
2019-05-07T07:46:30.046Z,10.25
2019-05-07T07:47:29.989Z,10.23
2019-05-07T07:48:31.898Z,10.20
2019-05-07T07:49:29.966Z,9.98
2019-05-07T07:50:29.974Z,10.07
2019-05-07T07:51:40.606Z,10.10
2019-05-07T07:52:32.412Z,10.31
2019-05-07T07:53:33.121Z,10.33
2019-05-07T07:54:32.108Z,10.15
2019-05-07T07:55:29.899Z,9.92
2019-05-07T07:56:45.324Z,9.65
2019-05-07T07:57:32.425Z,9.36
2019-05-07T07:58:31.573Z,9.23
2019-05-07T07:59:29.847Z,9.19
2019-05-07T08:00:32.317Z,9.43
2019-05-07T08:01:29.824Z,9.55
2019-05-07T08:02:32.069Z,9.73
2019-05-07T08:03:29.803Z,9.92
2019-05-07T08:04:31.864Z,9.95
2019-05-07T08:05:29.777Z,9.98
2019-05-07T08:06:29.762Z,9.87
2019-05-07T08:07:29.753Z,9.72
2019-05-07T08:08:31.478Z,9.46
2019-05-07T08:09:29.727Z,9.22
2019-05-07T08:10:32.391Z,9.29
2019-05-07T08:11:31.831Z,9.25
2019-05-07T08:12:29.691Z,9.04
2019-05-07T08:13:29.681Z,8.92
2019-05-07T08:14:32.394Z,9.13
2019-05-07T08:15:29.659Z,9.08
2019-05-07T08:16:29.645Z,9.06
2019-05-07T08:17:29.640Z,9.23
2019-05-07T08:18:29.726Z,9.23
2019-05-07T08:19:29.605Z,9.46
2019-05-07T08:20:29.609Z,9.69
2019-05-07T08:21:29.595Z,9.77
2019-05-07T08:22:29.570Z,10.01
2019-05-07T08:23:31.817Z,10.19
2019-05-07T08:24:31.899Z,10.07
2019-05-07T08:25:29.535Z,10.15
2019-05-07T08:26:29.541Z,10.28
2019-05-07T08:27:29.506Z,10.22
2019-05-07T08:28:31.773Z,10.02
2019-05-07T08:29:29.485Z,10.02
2019-05-07T08:30:29.473Z,10.07
2019-05-07T08:31:29.495Z,9.86
2019-05-07T08:32:29.485Z,9.83
2019-05-07T08:33:29.436Z,9.86
2019-05-07T08:34:29.423Z,9.99
2019-05-07T08:35:29.418Z,10.16
2019-05-07T08:36:29.401Z,10.05
2019-05-07T08:37:29.392Z,9.94
2019-05-07T08:38:30.061Z,9.95
2019-05-07T08:39:29.365Z,9.87
2019-05-07T08:40:29.358Z,9.82
2019-05-07T08:41:29.339Z,9.72
2019-05-07T08:42:29.328Z,9.66
2019-05-07T08:43:29.320Z,9.59
2019-05-07T08:44:29.328Z,9.50
2019-05-07T08:45:29.346Z,9.66
2019-05-07T08:46:29.401Z,9.61
2019-05-07T08:47:29.289Z,9.77
2019-05-07T08:48:29.262Z,9.82
2019-05-07T08:49:36.793Z,9.99
2019-05-07T08:50:30.265Z,10.12
2019-05-07T08:51:29.226Z,10.28
2019-05-07T08:52:29.217Z,10.44
2019-05-07T08:53:29.240Z,10.60
2019-05-07T08:54:29.190Z,10.59
2019-05-07T08:55:29.216Z,10.64
2019-05-07T08:56:29.259Z,10.53
2019-05-07T08:57:29.188Z,10.40
2019-05-07T08:58:29.182Z,10.37
2019-05-07T08:59:29.174Z,10.33
2019-05-07T09:00:29.124Z,10.34
2019-05-07T09:01:29.121Z,10.22
2019-05-07T09:02:29.116Z,10.16
2019-05-07T09:03:29.118Z,10.19
2019-05-07T09:04:29.073Z,10.26
2019-05-07T09:05:29.066Z,10.20
2019-05-07T09:06:29.047Z,10.48
2019-05-07T09:07:29.076Z,10.75
2019-05-07T09:08:29.054Z,10.97
2019-05-07T09:09:29.012Z,11.17
2019-05-07T09:10:29.005Z,11.41
2019-05-07T09:11:28.998Z,11.65
2019-05-07T09:12:28.978Z,11.80
2019-05-07T09:13:28.970Z,12.18
2019-05-07T09:14:28.972Z,12.40
2019-05-07T09:15:28.943Z,13.12
2019-05-07T09:16:28.938Z,13.67
2019-05-07T09:17:28.944Z,13.57
2019-05-07T09:18:28.916Z,13.42
2019-05-07T09:19:28.900Z,13.28
2019-05-07T09:20:28.905Z,13.25
2019-05-07T09:21:28.887Z,13.09
2019-05-07T09:22:28.869Z,13.20
2019-05-07T09:23:28.881Z,13.70
2019-05-07T09:24:28.904Z,14.30
2019-05-07T09:25:28.831Z,14.45
2019-05-07T09:26:28.862Z,14.30
2019-05-07T09:27:28.875Z,14.08
2019-05-07T09:28:28.807Z,14.59
2019-05-07T09:29:28.786Z,14.28
2019-05-07T09:30:28.905Z,13.86
2019-05-07T09:31:28.773Z,13.31
2019-05-07T09:32:28.776Z,13.44
2019-05-07T09:33:28.749Z,14.03
2019-05-07T09:34:28.735Z,14.32
2019-05-07T09:35:28.727Z,14.59
2019-05-07T09:36:28.714Z,15.04
2019-05-07T09:37:28.819Z,15.43
2019-05-07T09:38:28.709Z,15.59
2019-05-07T09:39:28.681Z,15.57
2019-05-07T09:40:28.670Z,15.94
2019-05-07T09:41:28.655Z,15.90
2019-05-07T09:42:28.655Z,16.09
2019-05-07T09:43:28.633Z,16.04
2019-05-07T09:44:28.642Z,15.59
2019-05-07T09:45:28.620Z,16.05
2019-05-07T09:46:28.600Z,15.94
2019-05-07T09:47:28.620Z,16.33
2019-05-07T09:48:28.585Z,15.35
2019-05-07T09:49:28.568Z,15.49
2019-05-07T09:50:28.572Z,15.42
2019-05-07T09:51:28.551Z,15.59
2019-05-07T09:52:28.541Z,15.65
2019-05-07T09:53:28.526Z,15.54
2019-05-07T09:54:28.516Z,15.75
2019-05-07T09:55:28.508Z,16.13
2019-05-07T09:56:28.514Z,15.92
2019-05-07T09:57:31.655Z,15.58
2019-05-07T09:58:36.659Z,14.78
2019-05-07T09:59:29.462Z,14.15
2019-05-07T10:00:28.475Z,14.48
2019-05-07T10:01:28.440Z,14.66
2019-05-07T10:02:28.444Z,14.14
2019-05-07T10:03:28.417Z,13.16
2019-05-07T10:04:28.418Z,12.80
2019-05-07T10:05:28.400Z,13.15
2019-05-07T10:06:28.385Z,13.62
2019-05-07T10:07:28.400Z,13.62
2019-05-07T10:08:28.378Z,13.81
2019-05-07T10:09:28.355Z,13.03
2019-05-07T10:10:28.341Z,12.86
2019-05-07T10:11:28.333Z,12.86
2019-05-07T10:12:28.328Z,12.83
2019-05-07T10:13:28.309Z,12.32
2019-05-07T10:14:28.313Z,11.83
2019-05-07T10:15:28.295Z,11.54
2019-05-07T10:16:28.278Z,11.54
2019-05-07T10:17:28.269Z,11.86
2019-05-07T10:18:28.257Z,11.90
2019-05-07T10:19:28.245Z,12.00
2019-05-07T10:20:28.253Z,12.04
2019-05-07T10:21:28.223Z,11.90
2019-05-07T10:22:28.216Z,11.95
2019-05-07T10:23:28.204Z,11.84
2019-05-07T10:24:28.186Z,11.63
2019-05-07T10:25:28.195Z,11.54
2019-05-07T10:26:28.203Z,11.19
2019-05-07T10:27:28.158Z,11.30
2019-05-07T10:28:28.142Z,11.51
2019-05-07T10:29:28.135Z,11.54
2019-05-07T10:30:28.194Z,11.26
2019-05-07T10:31:28.106Z,11.27
2019-05-07T10:32:28.114Z,11.25
2019-05-07T10:33:28.084Z,11.19
2019-05-07T10:34:28.083Z,11.17
2019-05-07T10:35:30.943Z,11.47
2019-05-07T10:36:29.048Z,11.51
2019-05-07T10:37:28.042Z,11.78
2019-05-07T10:38:28.060Z,11.69
2019-05-07T10:39:28.016Z,11.73
2019-05-07T10:40:28.008Z,11.99
2019-05-07T10:41:28.008Z,12.32
2019-05-07T10:42:27.984Z,12.20
2019-05-07T10:43:27.980Z,11.88
2019-05-07T10:44:27.980Z,11.83
2019-05-07T10:45:27.955Z,11.72
2019-05-07T10:46:27.951Z,11.73
2019-05-07T10:47:27.929Z,11.97
2019-05-07T10:48:27.930Z,11.95
2019-05-07T10:49:27.905Z,11.99
2019-05-07T10:50:36.434Z,11.84
2019-05-07T10:51:28.884Z,11.81
2019-05-07T10:52:27.872Z,11.88
2019-05-07T10:53:27.863Z,12.13
2019-05-07T10:54:27.854Z,12.18
2019-05-07T10:55:27.837Z,12.50
2019-05-07T10:56:27.842Z,12.83
2019-05-07T10:57:27.817Z,13.13
2019-05-07T10:58:27.808Z,13.27
2019-05-07T10:59:27.796Z,13.27
2019-05-07T11:00:27.785Z,13.81
2019-05-07T11:01:27.772Z,14.11
2019-05-07T11:02:27.778Z,14.10
2019-05-07T11:03:27.751Z,13.18
2019-05-07T11:04:39.336Z,12.79
2019-05-07T11:05:28.729Z,12.35
2019-05-07T11:06:27.729Z,12.17
2019-05-07T11:07:27.708Z,11.97
2019-05-07T11:08:27.706Z,11.73
2019-05-07T11:09:27.681Z,11.72
2019-05-07T11:10:27.666Z,11.97
2019-05-07T11:11:27.663Z,12.17
2019-05-07T11:12:27.646Z,12.55
2019-05-07T11:13:27.636Z,12.76
2019-05-07T11:14:27.641Z,12.90
2019-05-07T11:15:27.611Z,13.08
2019-05-07T11:16:27.605Z,13.15
2019-05-07T11:17:27.588Z,13.44
2019-05-07T11:18:27.582Z,13.59
2019-05-07T11:19:27.567Z,13.53
2019-05-07T11:20:27.589Z,13.57
2019-05-07T11:21:27.547Z,13.59
2019-05-07T11:22:27.536Z,13.86
2019-05-07T11:23:27.524Z,14.03
2019-05-07T11:24:27.512Z,13.25
2019-05-07T11:25:27.510Z,13.15
2019-05-07T11:26:27.507Z,13.41
2019-05-07T11:27:27.479Z,13.62
2019-05-07T11:28:27.466Z,13.75
2019-05-07T11:29:27.454Z,13.71
2019-05-07T11:30:27.465Z,13.47
2019-05-07T11:31:27.432Z,13.28
2019-05-07T11:32:27.439Z,13.05
2019-05-07T11:33:27.408Z,13.18
2019-05-07T11:34:27.400Z,13.28
2019-05-07T11:35:27.392Z,13.38
2019-05-07T11:36:27.378Z,13.35
2019-05-07T11:37:27.371Z,13.46
2019-05-07T11:38:27.370Z,13.65
2019-05-07T11:39:27.354Z,13.78
2019-05-07T11:40:27.333Z,14.03
2019-05-07T11:41:27.326Z,13.93
2019-05-07T11:42:27.309Z,13.78
2019-05-07T11:43:27.299Z,13.97
2019-05-07T11:44:27.302Z,13.96
2019-05-07T11:45:27.276Z,13.65
2019-05-07T11:46:27.268Z,13.72
2019-05-07T11:47:27.253Z,13.60
2019-05-07T11:48:27.242Z,13.38
2019-05-07T11:49:27.232Z,13.37
2019-05-07T11:50:27.235Z,13.39
2019-05-07T11:51:27.234Z,13.23
2019-05-07T11:52:27.195Z,13.39
2019-05-07T11:53:27.185Z,13.19
2019-05-07T11:54:27.186Z,13.13
2019-05-07T11:55:27.171Z,12.90
2019-05-07T11:56:27.173Z,12.57
2019-05-07T11:57:27.144Z,12.53
2019-05-07T11:58:27.131Z,12.12
2019-05-07T11:59:27.120Z,12.20
2019-05-07T12:00:27.110Z,12.12
2019-05-07T12:01:34.811Z,11.87
2019-05-07T12:02:28.100Z,11.52
2019-05-07T12:03:27.075Z,11.35
2019-05-07T12:04:27.984Z,11.43
2019-05-07T12:05:27.049Z,11.69
2019-05-07T12:06:27.039Z,11.87
2019-05-07T12:07:27.073Z,11.95
2019-05-07T12:08:39.319Z,12.09
2019-05-07T12:09:28.001Z,12.20
2019-05-07T12:10:26.998Z,12.20
2019-05-07T12:11:26.987Z,12.15
2019-05-07T12:12:26.969Z,12.29
2019-05-07T12:13:26.967Z,12.24
2019-05-07T12:14:31.838Z,12.40
2019-05-07T12:15:27.938Z,12.39
2019-05-07T12:16:26.933Z,12.35
2019-05-07T12:17:26.914Z,12.32
2019-05-07T12:18:26.903Z,12.25
2019-05-07T12:19:26.895Z,11.90
2019-05-07T12:20:26.901Z,11.95
2019-05-07T12:21:26.869Z,12.22
2019-05-07T12:22:26.870Z,12.46
2019-05-07T12:23:26.851Z,12.67
2019-05-07T12:24:26.839Z,12.95
2019-05-07T12:25:26.823Z,13.16
2019-05-07T12:26:26.840Z,12.82
2019-05-07T12:27:26.800Z,13.09
2019-05-07T12:28:26.791Z,13.08
2019-05-07T12:29:26.788Z,12.76
2019-05-07T12:30:26.771Z,12.72
2019-05-07T12:31:26.761Z,12.65
2019-05-07T12:32:26.768Z,12.46
2019-05-07T12:33:26.733Z,12.55
2019-05-07T12:34:26.721Z,12.62
2019-05-07T12:35:26.711Z,12.93
2019-05-07T12:36:26.751Z,13.15
2019-05-07T12:37:26.703Z,12.86
2019-05-07T12:38:26.693Z,12.58
2019-05-07T12:39:26.664Z,13.05
2019-05-07T12:40:26.658Z,13.11
2019-05-07T12:41:26.658Z,13.09
2019-05-07T12:42:26.640Z,13.23
2019-05-07T12:43:26.620Z,13.08
2019-05-07T12:44:26.635Z,12.67
2019-05-07T12:45:26.603Z,12.42
2019-05-07T12:46:26.608Z,12.35
2019-05-07T12:47:26.578Z,12.39
2019-05-07T12:48:26.563Z,12.58
2019-05-07T12:49:26.554Z,12.47
2019-05-07T12:50:26.559Z,12.37
2019-05-07T12:51:34.504Z,12.54
2019-05-07T12:52:27.517Z,12.76
2019-05-07T12:53:26.507Z,12.97
2019-05-07T12:54:26.500Z,13.08
2019-05-07T12:55:26.483Z,13.15
2019-05-07T12:56:26.500Z,13.30
2019-05-07T12:57:26.464Z,13.28
2019-05-07T12:58:26.456Z,13.38
2019-05-07T12:59:26.441Z,13.60
2019-05-07T13:00:26.431Z,13.63
2019-05-07T13:01:26.423Z,13.70
2019-05-07T13:02:37.156Z,13.68
2019-05-07T13:03:27.407Z,13.79
2019-05-07T13:04:26.382Z,13.93
2019-05-07T13:05:26.371Z,13.83
2019-05-07T13:06:26.363Z,13.74
2019-05-07T13:07:26.355Z,13.25
2019-05-07T13:08:26.361Z,13.08
2019-05-07T13:09:26.336Z,13.15